sensor_id;sensor_type;location;lat;lon;timestamp;pressure;altitude;pressure_sealevel;temperature;humidity
9855;BME280;4966;48.112;9.282;2022-12-10T00:01:11;93343.34;;;2.04;81.58
9855;BME280;4966;48.112;9.282;2022-12-10T00:03:37;93340.97;;;2.11;81.45
9855;BME280;4966;48.112;9.282;2022-12-10T00:06:11;93341.09;;;2.23;81.42
9855;BME280;4966;48.112;9.282;2022-12-10T00:08:37;93335.56;;;2.28;80.98
9855;BME280;4966;48.112;9.282;2022-12-10T00:11:04;93327.81;;;2.44;79.97
9855;BME280;4966;48.112;9.282;2022-12-10T00:13:30;93328.47;;;2.32;80.37
9855;BME280;4966;48.112;9.282;2022-12-10T00:15:59;93330.38;;;2.23;80.96
9855;BME280;4966;48.112;9.282;2022-12-10T00:18:24;93329.56;;;2.31;80.79
9855;BME280;4966;48.112;9.282;2022-12-10T00:20:49;93327.22;;;2.21;81.24
9855;BME280;4966;48.112;9.282;2022-12-10T00:23:15;93327.34;;;2.33;81.38
9855;BME280;4966;48.112;9.282;2022-12-10T00:25:40;93339.50;;;2.31;81.12
9855;BME280;4966;48.112;9.282;2022-12-10T00:28:05;93320.72;;;2.22;81.71
9855;BME280;4966;48.112;9.282;2022-12-10T00:30:32;93317.88;;;2.36;81.11
9855;BME280;4966;48.112;9.282;2022-12-10T00:32:57;93312.81;;;2.34;80.46
9855;BME280;4966;48.112;9.282;2022-12-10T00:35:23;93315.84;;;2.24;80.75
9855;BME280;4966;48.112;9.282;2022-12-10T00:37:48;93323.91;;;2.16;81.54
9855;BME280;4966;48.112;9.282;2022-12-10T00:40:14;93323.41;;;2.22;81.25
9855;BME280;4966;48.112;9.282;2022-12-10T00:42:39;93320.72;;;2.22;81.06
9855;BME280;4966;48.112;9.282;2022-12-10T00:45:04;93321.25;;;2.07;81.37
9855;BME280;4966;48.112;9.282;2022-12-10T00:47:30;93321.72;;;2.09;81.14
9855;BME280;4966;48.112;9.282;2022-12-10T00:49:55;93318.88;;;2.05;81.19
9855;BME280;4966;48.112;9.282;2022-12-10T00:52:21;93321.88;;;2.04;81.66
9855;BME280;4966;48.112;9.282;2022-12-10T00:54:46;93322.50;;;2.01;81.53
9855;BME280;4966;48.112;9.282;2022-12-10T00:57:12;93332.28;;;1.88;82.20
9855;BME280;4966;48.112;9.282;2022-12-10T00:59:37;93323.31;;;1.75;83.13
9855;BME280;4966;48.112;9.282;2022-12-10T01:02:03;93337.97;;;1.69;83.38
9855;BME280;4966;48.112;9.282;2022-12-10T01:04:28;93334.19;;;2.05;82.11
9855;BME280;4966;48.112;9.282;2022-12-10T01:06:54;93336.06;;;1.96;82.27
9855;BME280;4966;48.112;9.282;2022-12-10T01:09:22;93337.00;;;1.91;82.70
9855;BME280;4966;48.112;9.282;2022-12-10T01:11:49;93332.00;;;1.89;82.75
9855;BME280;4966;48.112;9.282;2022-12-10T01:14:24;93337.66;;;1.97;82.55
9855;BME280;4966;48.112;9.282;2022-12-10T01:16:53;93339.41;;;2.01;82.25
9855;BME280;4966;48.112;9.282;2022-12-10T01:19:19;93340.47;;;1.91;82.65
9855;BME280;4966;48.112;9.282;2022-12-10T01:21:44;93349.50;;;1.87;82.84
9855;BME280;4966;48.112;9.282;2022-12-10T01:24:10;93356.75;;;2.04;82.52
9855;BME280;4966;48.112;9.282;2022-12-10T01:26:36;93364.47;;;1.97;82.99
9855;BME280;4966;48.112;9.282;2022-12-10T01:29:03;93365.41;;;1.83;83.04
9855;BME280;4966;48.112;9.282;2022-12-10T01:31:34;93367.94;;;1.88;82.98
9855;BME280;4966;48.112;9.282;2022-12-10T01:34:00;93364.78;;;1.86;82.98
9855;BME280;4966;48.112;9.282;2022-12-10T01:36:33;93366.38;;;1.87;82.90
9855;BME280;4966;48.112;9.282;2022-12-10T01:39:00;93363.34;;;1.89;82.93
9855;BME280;4966;48.112;9.282;2022-12-10T01:41:29;93361.63;;;1.93;82.59
9855;BME280;4966;48.112;9.282;2022-12-10T01:44:04;93360.53;;;1.94;82.48
9855;BME280;4966;48.112;9.282;2022-12-10T01:46:35;93368.72;;;1.98;82.57
9855;BME280;4966;48.112;9.282;2022-12-10T01:49:03;93356.69;;;1.43;84.74
9855;BME280;4966;48.112;9.282;2022-12-10T01:51:32;93358.63;;;1.51;84.68
9855;BME280;4966;48.112;9.282;2022-12-10T01:53:58;93346.16;;;1.81;84.04
9855;BME280;4966;48.112;9.282;2022-12-10T01:56:24;93352.03;;;1.92;83.60
9855;BME280;4966;48.112;9.282;2022-12-10T01:58:55;93353.28;;;1.95;83.85
9855;BME280;4966;48.112;9.282;2022-12-10T02:01:30;93350.75;;;1.81;84.10
9855;BME280;4966;48.112;9.282;2022-12-10T02:04:22;93350.88;;;1.67;84.38
9855;BME280;4966;48.112;9.282;2022-12-10T02:06:56;93340.00;;;1.72;84.43
9855;BME280;4966;48.112;9.282;2022-12-10T02:09:43;93340.47;;;1.57;85.00
9855;BME280;4966;48.112;9.282;2022-12-10T02:14:59;93363.84;;;1.74;83.94
9855;BME280;4966;48.112;9.282;2022-12-10T02:17:36;93366.06;;;1.80;84.17
9855;BME280;4966;48.112;9.282;2022-12-10T02:22:47;93373.94;;;1.68;85.02
9855;BME280;4966;48.112;9.282;2022-12-10T02:25:15;93372.22;;;1.89;83.95
9855;BME280;4966;48.112;9.282;2022-12-10T02:27:49;93366.66;;;1.68;84.28
9855;BME280;4966;48.112;9.282;2022-12-10T02:30:17;93355.16;;;1.68;84.27
9855;BME280;4966;48.112;9.282;2022-12-10T02:32:45;93354.22;;;1.81;83.95
9855;BME280;4966;48.112;9.282;2022-12-10T02:35:21;93338.75;;;1.69;84.73
9855;BME280;4966;48.112;9.282;2022-12-10T02:38:13;93331.19;;;1.80;84.23
9855;BME280;4966;48.112;9.282;2022-12-10T02:40:46;93325.66;;;1.51;85.89
9855;BME280;4966;48.112;9.282;2022-12-10T02:43:13;93343.00;;;1.53;85.60
9855;BME280;4966;48.112;9.282;2022-12-10T02:45:39;93362.06;;;1.34;86.49
9855;BME280;4966;48.112;9.282;2022-12-10T02:48:06;93365.84;;;1.51;86.08
9855;BME280;4966;48.112;9.282;2022-12-10T02:50:31;93353.44;;;1.81;84.83
9855;BME280;4966;48.112;9.282;2022-12-10T02:52:57;93354.69;;;1.92;84.29
9855;BME280;4966;48.112;9.282;2022-12-10T02:55:22;93354.88;;;1.87;84.07
9855;BME280;4966;48.112;9.282;2022-12-10T02:58:16;93353.88;;;1.91;83.77
9855;BME280;4966;48.112;9.282;2022-12-10T03:00:56;93340.97;;;2.11;83.16
9855;BME280;4966;48.112;9.282;2022-12-10T03:03:28;93346.47;;;2.15;82.57
9855;BME280;4966;48.112;9.282;2022-12-10T03:06:25;93344.75;;;2.10;83.25
9855;BME280;4966;48.112;9.282;2022-12-10T03:09:45;93346.34;;;2.11;83.11
9855;BME280;4966;48.112;9.282;2022-12-10T03:11:43;93326.91;;;2.14;82.82
9855;BME280;4966;48.112;9.282;2022-12-10T03:14:18;93332.91;;;2.02;83.71
9855;BME280;4966;48.112;9.282;2022-12-10T03:16:53;93332.75;;;2.07;83.07
9855;BME280;4966;48.112;9.282;2022-12-10T03:19:22;93334.66;;;1.98;83.03
9855;BME280;4966;48.112;9.282;2022-12-10T03:21:50;93326.91;;;2.14;82.44
9855;BME280;4966;48.112;9.282;2022-12-10T03:24:18;93335.25;;;2.12;82.65
9855;BME280;4966;48.112;9.282;2022-12-10T03:26:46;93328.03;;;1.96;82.98
9855;BME280;4966;48.112;9.282;2022-12-10T03:29:17;93316.50;;;2.04;83.63
9855;BME280;4966;48.112;9.282;2022-12-10T03:31:45;93318.06;;;2.13;83.70
9855;BME280;4966;48.112;9.282;2022-12-10T03:34:11;93322.50;;;2.09;83.67
9855;BME280;4966;48.112;9.282;2022-12-10T03:36:38;93337.31;;;1.98;83.78
9855;BME280;4966;48.112;9.282;2022-12-10T03:39:04;93333.88;;;1.98;84.16
9855;BME280;4966;48.112;9.282;2022-12-10T03:41:30;93328.81;;;1.87;84.68
9855;BME280;4966;48.112;9.282;2022-12-10T03:43:58;93343.34;;;2.04;83.90
9855;BME280;4966;48.112;9.282;2022-12-10T03:46:25;93344.28;;;1.99;83.87
9855;BME280;4966;48.112;9.282;2022-12-10T03:48:51;93354.38;;;1.85;84.52
9855;BME280;4966;48.112;9.282;2022-12-10T03:51:17;93349.81;;;1.85;84.81
9855;BME280;4966;48.112;9.282;2022-12-10T03:53:43;93349.31;;;1.83;84.80
9855;BME280;4966;48.112;9.282;2022-12-10T03:56:08;93357.53;;;1.96;84.39
9855;BME280;4966;48.112;9.282;2022-12-10T03:58:33;93357.69;;;1.99;84.11
9855;BME280;4966;48.112;9.282;2022-12-10T04:00:59;93350.56;;;1.60;85.50
9855;BME280;4966;48.112;9.282;2022-12-10T04:03:24;93353.75;;;1.70;85.70
9855;BME280;4966;48.112;9.282;2022-12-10T04:05:50;93339.56;;;1.70;85.43
9855;BME280;4966;48.112;9.282;2022-12-10T04:08:15;93336.69;;;1.58;86.84
9855;BME280;4966;48.112;9.282;2022-12-10T04:10:41;93343.31;;;1.69;86.51
9855;BME280;4966;48.112;9.282;2022-12-10T04:13:06;93343.00;;;1.79;85.42
9855;BME280;4966;48.112;9.282;2022-12-10T04:15:50;93353.59;;;1.76;85.73
9855;BME280;4966;48.112;9.282;2022-12-10T04:18:34;93360.69;;;1.98;84.75
9855;BME280;4966;48.112;9.282;2022-12-10T04:20:59;93351.38;;;1.95;84.86
9855;BME280;4966;48.112;9.282;2022-12-10T04:23:43;93354.38;;;2.02;84.75
9855;BME280;4966;48.112;9.282;2022-12-10T04:26:27;93354.53;;;1.88;85.14
9855;BME280;4966;48.112;9.282;2022-12-10T04:29:11;93370.16;;;1.95;84.32
9855;BME280;4966;48.112;9.282;2022-12-10T04:31:36;93367.47;;;1.95;84.02
9855;BME280;4966;48.112;9.282;2022-12-10T04:34:01;93363.84;;;1.91;84.47
9855;BME280;4966;48.112;9.282;2022-12-10T04:36:27;93360.53;;;2.03;83.85
9855;BME280;4966;48.112;9.282;2022-12-10T04:38:52;93361.00;;;1.79;84.32
9855;BME280;4966;48.112;9.282;2022-12-10T04:41:17;93363.53;;;1.92;83.80
9855;BME280;4966;48.112;9.282;2022-12-10T04:43:43;93356.88;;;1.64;85.12
9855;BME280;4966;48.112;9.282;2022-12-10T04:46:09;93353.72;;;1.79;84.00
9855;BME280;4966;48.112;9.282;2022-12-10T04:48:35;93364.94;;;1.73;84.56
9855;BME280;4966;48.112;9.282;2022-12-10T04:51:00;93366.06;;;1.80;84.31
9855;BME280;4966;48.112;9.282;2022-12-10T04:53:25;93369.53;;;1.89;84.10
9855;BME280;4966;48.112;9.282;2022-12-10T04:55:51;93368.09;;;1.92;84.05
9855;BME280;4966;48.112;9.282;2022-12-10T04:58:16;93363.84;;;2.00;83.21
9855;BME280;4966;48.112;9.282;2022-12-10T05:00:42;93365.09;;;2.11;82.82
9855;BME280;4966;48.112;9.282;2022-12-10T05:03:07;93355.59;;;2.31;82.00
9855;BME280;4966;48.112;9.282;2022-12-10T05:05:34;93347.59;;;2.05;82.62
9855;BME280;4966;48.112;9.282;2022-12-10T05:07:59;93358.31;;;1.96;83.22
9855;BME280;4966;48.112;9.282;2022-12-10T05:10:25;93361.94;;;1.91;82.85
9855;BME280;4966;48.112;9.282;2022-12-10T05:12:50;93359.13;;;1.97;82.65
9855;BME280;4966;48.112;9.282;2022-12-10T05:15:16;93359.25;;;2.00;82.74
9855;BME280;4966;48.112;9.282;2022-12-10T05:17:41;93358.63;;;1.95;82.83
9855;BME280;4966;48.112;9.282;2022-12-10T05:20:07;93357.38;;;1.92;82.98
9855;BME280;4966;48.112;9.282;2022-12-10T05:22:32;93352.63;;;1.98;83.36
9855;BME280;4966;48.112;9.282;2022-12-10T05:25:16;93350.75;;;2.16;82.44
9855;BME280;4966;48.112;9.282;2022-12-10T05:27:42;93352.13;;;2.30;81.49
9855;BME280;4966;48.112;9.282;2022-12-10T05:30:08;93350.88;;;2.19;81.97
9855;BME280;4966;48.112;9.282;2022-12-10T05:32:35;93355.50;;;2.01;82.58
9855;BME280;4966;48.112;9.282;2022-12-10T05:35:00;93356.56;;;2.00;83.11
9855;BME280;4966;48.112;9.282;2022-12-10T05:37:26;93357.06;;;2.02;82.97
9855;BME280;4966;48.112;9.282;2022-12-10T05:39:52;93369.81;;;2.05;82.80
9855;BME280;4966;48.112;9.282;2022-12-10T05:42:17;93367.00;;;2.02;82.86
9855;BME280;4966;48.112;9.282;2022-12-10T05:44:42;93371.25;;;1.94;83.35
9855;BME280;4966;48.112;9.282;2022-12-10T05:47:08;93365.72;;;2.08;82.69
9855;BME280;4966;48.112;9.282;2022-12-10T05:49:33;93373.94;;;2.11;82.34
9855;BME280;4966;48.112;9.282;2022-12-10T05:51:58;93371.88;;;2.17;82.35
9855;BME280;4966;48.112;9.282;2022-12-10T05:54:24;93364.78;;;2.12;82.32
9855;BME280;4966;48.112;9.282;2022-12-10T05:56:49;93382.44;;;1.96;83.25
9855;BME280;4966;48.112;9.282;2022-12-10T05:59:14;93382.63;;;2.08;82.84
9855;BME280;4966;48.112;9.282;2022-12-10T06:01:40;93369.19;;;2.26;81.76
9855;BME280;4966;48.112;9.282;2022-12-10T06:04:05;93371.88;;;1.91;82.78
9855;BME280;4966;48.112;9.282;2022-12-10T06:06:34;93375.66;;;2.07;82.55
9855;BME280;4966;48.112;9.282;2022-12-10T06:08:59;93372.03;;;2.12;81.76
9855;BME280;4966;48.112;9.282;2022-12-10T06:11:25;93364.31;;;2.19;81.42
9855;BME280;4966;48.112;9.282;2022-12-10T06:13:51;93366.34;;;2.05;81.82
9855;BME280;4966;48.112;9.282;2022-12-10T06:16:17;93367.94;;;2.06;81.96
9855;BME280;4966;48.112;9.282;2022-12-10T06:18:43;93367.78;;;2.02;82.27
9855;BME280;4966;48.112;9.282;2022-12-10T06:21:12;93382.31;;;2.01;82.22
9855;BME280;4966;48.112;9.282;2022-12-10T06:23:39;93388.59;;;1.88;82.39
9855;BME280;4966;48.112;9.282;2022-12-10T06:26:12;93397.75;;;2.04;82.32
9855;BME280;4966;48.112;9.282;2022-12-10T06:28:38;93391.63;;;2.04;82.12
9855;BME280;4966;48.112;9.282;2022-12-10T06:31:04;93373.78;;;1.90;82.10
9855;BME280;4966;48.112;9.282;2022-12-10T06:33:30;93380.06;;;2.03;81.86
9855;BME280;4966;48.112;9.282;2022-12-10T06:35:55;93381.81;;;1.73;82.42
9855;BME280;4966;48.112;9.282;2022-12-10T06:38:21;93387.00;;;1.69;82.33
9855;BME280;4966;48.112;9.282;2022-12-10T06:40:47;93392.84;;;1.72;82.17
9855;BME280;4966;48.112;9.282;2022-12-10T06:43:12;93387.19;;;1.73;82.72
9855;BME280;4966;48.112;9.282;2022-12-10T06:45:39;93386.97;;;1.52;82.75
9855;BME280;4966;48.112;9.282;2022-12-10T06:48:04;93381.97;;;1.77;81.90
9855;BME280;4966;48.112;9.282;2022-12-10T06:50:30;93394.84;;;1.40;83.40
9855;BME280;4966;48.112;9.282;2022-12-10T06:52:55;93391.56;;;1.52;82.92
9855;BME280;4966;48.112;9.282;2022-12-10T06:55:21;93398.53;;;1.70;82.65
9855;BME280;4966;48.112;9.282;2022-12-10T06:57:46;93408.94;;;1.72;82.56
9855;BME280;4966;48.112;9.282;2022-12-10T07:00:12;93405.09;;;1.55;82.65
9855;BME280;4966;48.112;9.282;2022-12-10T07:02:38;93404.38;;;1.81;81.70
9855;BME280;4966;48.112;9.282;2022-12-10T07:05:03;93404.19;;;1.77;81.54
9855;BME280;4966;48.112;9.282;2022-12-10T07:07:29;93412.41;;;1.15;82.55
9855;BME280;4966;48.112;9.282;2022-12-10T07:09:54;93418.34;;;1.52;81.50
9855;BME280;4966;48.112;9.282;2022-12-10T07:12:19;93427.03;;;1.48;80.82
9855;BME280;4966;48.112;9.282;2022-12-10T07:14:45;93417.91;;;1.58;80.85
9855;BME280;4966;48.112;9.282;2022-12-10T07:17:10;93425.78;;;1.63;80.13
9855;BME280;4966;48.112;9.282;2022-12-10T07:19:35;93421.63;;;1.40;81.05
9855;BME280;4966;48.112;9.282;2022-12-10T07:22:01;93420.72;;;1.53;80.68
9855;BME280;4966;48.112;9.282;2022-12-10T07:24:26;93425.13;;;1.49;81.10
9855;BME280;4966;48.112;9.282;2022-12-10T07:26:51;93435.75;;;1.63;80.58
9855;BME280;4966;48.112;9.282;2022-12-10T07:29:19;93434.88;;;1.45;80.32
9855;BME280;4966;48.112;9.282;2022-12-10T07:31:45;93435.75;;;1.23;81.16
9855;BME280;4966;48.112;9.282;2022-12-10T07:34:12;93440.38;;;1.40;80.69
9855;BME280;4966;48.112;9.282;2022-12-10T07:36:38;93429.44;;;1.19;81.52
9855;BME280;4966;48.112;9.282;2022-12-10T07:39:08;93428.03;;;1.21;80.82
9855;BME280;4966;48.112;9.282;2022-12-10T07:41:34;93437.19;;;1.29;80.58
9855;BME280;4966;48.112;9.282;2022-12-10T07:44:02;93439.38;;;0.87;81.40
9855;BME280;4966;48.112;9.282;2022-12-10T07:46:30;93440.09;;;1.10;80.64
9855;BME280;4966;48.112;9.282;2022-12-10T07:48:56;93432.84;;;1.02;81.14
9855;BME280;4966;48.112;9.282;2022-12-10T07:51:22;93433.84;;;0.83;81.67
9855;BME280;4966;48.112;9.282;2022-12-10T07:53:50;93420.09;;;1.08;81.24
9855;BME280;4966;48.112;9.282;2022-12-10T07:56:16;93437.53;;;1.36;80.48
9855;BME280;4966;48.112;9.282;2022-12-10T07:58:42;93448.53;;;1.26;80.36
9855;BME280;4966;48.112;9.282;2022-12-10T08:01:11;93451.06;;;1.31;79.48
9855;BME280;4966;48.112;9.282;2022-12-10T08:03:37;93463.25;;;1.37;78.77
9855;BME280;4966;48.112;9.282;2022-12-10T08:06:05;93463.19;;;1.28;79.13
9855;BME280;4966;48.112;9.282;2022-12-10T08:08:35;93463.63;;;1.13;78.57
9855;BME280;4966;48.112;9.282;2022-12-10T08:11:02;93465.22;;;1.23;78.43
9855;BME280;4966;48.112;9.282;2022-12-10T08:13:28;93451.22;;;0.95;80.32
9855;BME280;4966;48.112;9.282;2022-12-10T08:15:54;93449.38;;;1.04;79.12
9855;BME280;4966;48.112;9.282;2022-12-10T08:18:20;93443.47;;;0.84;79.87
9855;BME280;4966;48.112;9.282;2022-12-10T08:20:46;93446.16;;;0.93;79.83
9855;BME280;4966;48.112;9.282;2022-12-10T08:23:11;93456.78;;;0.98;79.67
9855;BME280;4966;48.112;9.282;2022-12-10T08:25:37;93462.59;;;1.00;78.92
9855;BME280;4966;48.112;9.282;2022-12-10T08:28:02;93468.19;;;1.13;78.29
9855;BME280;4966;48.112;9.282;2022-12-10T08:30:29;93469.13;;;1.17;77.82
9855;BME280;4966;48.112;9.282;2022-12-10T08:32:54;93458.28;;;1.22;78.05
9855;BME280;4966;48.112;9.282;2022-12-10T08:35:20;93465.59;;;0.99;79.36
9855;BME280;4966;48.112;9.282;2022-12-10T08:37:45;93467.22;;;1.09;77.23
9855;BME280;4966;48.112;9.282;2022-12-10T08:40:11;93477.50;;;1.15;77.25
9855;BME280;4966;48.112;9.282;2022-12-10T08:42:36;93472.34;;;0.96;76.97
9855;BME280;4966;48.112;9.282;2022-12-10T08:45:02;93475.25;;;1.09;77.60
9855;BME280;4966;48.112;9.282;2022-12-10T08:47:27;93475.13;;;1.14;77.40
9855;BME280;4966;48.112;9.282;2022-12-10T08:49:53;93482.28;;;1.27;77.29
9855;BME280;4966;48.112;9.282;2022-12-10T08:52:18;93482.38;;;1.13;76.71
9855;BME280;4966;48.112;9.282;2022-12-10T08:54:43;93496.31;;;1.33;76.38
9855;BME280;4966;48.112;9.282;2022-12-10T08:57:09;93485.16;;;1.39;76.03
9855;BME280;4966;48.112;9.282;2022-12-10T08:59:34;93485.38;;;1.20;76.28
9855;BME280;4966;48.112;9.282;2022-12-10T09:01:59;93487.84;;;1.39;75.67
9855;BME280;4966;48.112;9.282;2022-12-10T09:04:25;93485.69;;;1.19;75.95
9855;BME280;4966;48.112;9.282;2022-12-10T09:06:50;93485.56;;;1.24;76.51
9855;BME280;4966;48.112;9.282;2022-12-10T09:09:17;93496.53;;;1.14;76.05
9855;BME280;4966;48.112;9.282;2022-12-10T09:11:43;93504.44;;;0.88;77.46
9855;BME280;4966;48.112;9.282;2022-12-10T09:14:11;93510.00;;;1.31;76.11
9855;BME280;4966;48.112;9.282;2022-12-10T09:16:37;93508.78;;;1.37;75.53
9855;BME280;4966;48.112;9.282;2022-12-10T09:19:05;93500.88;;;1.01;75.96
9855;BME280;4966;48.112;9.282;2022-12-10T09:21:31;93500.44;;;1.08;75.30
9855;BME280;4966;48.112;9.282;2022-12-10T09:23:58;93499.50;;;1.12;76.06
9855;BME280;4966;48.112;9.282;2022-12-10T09:26:23;93509.34;;;0.94;75.43
9855;BME280;4966;48.112;9.282;2022-12-10T09:28:49;93509.16;;;1.13;74.96
9855;BME280;4966;48.112;9.282;2022-12-10T09:31:17;93516.03;;;1.37;75.19
9855;BME280;4966;48.112;9.282;2022-12-10T09:33:43;93514.88;;;1.29;74.30
9855;BME280;4966;48.112;9.282;2022-12-10T09:36:10;93516.47;;;1.30;74.15
9855;BME280;4966;48.112;9.282;2022-12-10T09:38:38;93520.25;;;1.69;73.40
9855;BME280;4966;48.112;9.282;2022-12-10T09:46:26;93511.66;;;1.49;72.66
9855;BME280;4966;48.112;9.282;2022-12-10T09:49:05;93507.66;;;1.78;72.70
9855;BME280;4966;48.112;9.282;2022-12-10T09:51:36;93494.56;;;1.68;72.47
9855;BME280;4966;48.112;9.282;2022-12-10T09:54:05;93487.97;;;1.34;73.48
9855;BME280;4966;48.112;9.282;2022-12-10T09:56:37;93494.47;;;1.42;73.88
9855;BME280;4966;48.112;9.282;2022-12-10T09:59:16;93508.91;;;1.72;72.64
9855;BME280;4966;48.112;9.282;2022-12-10T10:01:44;93519.56;;;1.55;71.70
9855;BME280;4966;48.112;9.282;2022-12-10T10:04:10;93522.91;;;1.60;72.55
9855;BME280;4966;48.112;9.282;2022-12-10T10:06:35;93523.97;;;1.51;72.56
9855;BME280;4966;48.112;9.282;2022-12-10T10:09:02;93529.75;;;1.75;72.10
9855;BME280;4966;48.112;9.282;2022-12-10T10:11:32;93528.44;;;1.64;71.32
9855;BME280;4966;48.112;9.282;2022-12-10T10:18:57;93544.09;;;1.39;71.78
9855;BME280;4966;48.112;9.282;2022-12-10T10:21:30;93532.53;;;1.61;71.37
9855;BME280;4966;48.112;9.282;2022-12-10T10:23:58;93541.34;;;1.62;71.53
9855;BME280;4966;48.112;9.282;2022-12-10T10:26:26;93544.75;;;1.85;71.12
9855;BME280;4966;48.112;9.282;2022-12-10T10:29:00;93539.56;;;1.88;70.87
9855;BME280;4966;48.112;9.282;2022-12-10T10:31:29;93549.06;;;1.95;71.29
9855;BME280;4966;48.112;9.282;2022-12-10T10:34:04;93542.56;;;1.96;71.23
9855;BME280;4966;48.112;9.282;2022-12-10T10:36:36;93547.81;;;2.09;70.53
9855;BME280;4966;48.112;9.282;2022-12-10T10:39:32;93544.28;;;1.91;71.01
9855;BME280;4966;48.112;9.282;2022-12-10T10:41:57;93544.84;;;2.11;70.36
9855;BME280;4966;48.112;9.282;2022-12-10T10:44:26;93540.41;;;2.06;70.51
9855;BME280;4966;48.112;9.282;2022-12-10T10:46:54;93534.88;;;2.11;70.15
9855;BME280;4966;48.112;9.282;2022-12-10T10:51:50;93535.69;;;2.21;70.16
9855;BME280;4966;48.112;9.282;2022-12-10T10:57:04;93540.88;;;2.08;70.86
9855;BME280;4966;48.112;9.282;2022-12-10T10:59:35;93535.00;;;1.98;71.37
9855;BME280;4966;48.112;9.282;2022-12-10T11:02:26;93538.47;;;1.89;71.24
9855;BME280;4966;48.112;9.282;2022-12-10T11:04:55;93531.75;;;1.61;71.44
9855;BME280;4966;48.112;9.282;2022-12-10T11:09:55;93522.31;;;1.32;73.67
9855;BME280;4966;48.112;9.282;2022-12-10T11:12:39;93517.19;;;1.53;73.64
9855;BME280;4966;48.112;9.282;2022-12-10T11:17:51;93533.22;;;1.84;73.51
9855;BME280;4966;48.112;9.282;2022-12-10T11:20:20;93525.94;;;1.36;71.13
9855;BME280;4966;48.112;9.282;2022-12-10T11:23:01;93539.84;;;0.84;72.95
9855;BME280;4966;48.112;9.282;2022-12-10T11:28:31;93549.59;;;1.34;72.56
9855;BME280;4966;48.112;9.282;2022-12-10T11:31:25;93551.78;;;1.01;73.39
9855;BME280;4966;48.112;9.282;2022-12-10T11:42:04;93555.41;;;1.36;72.01
9855;BME280;4966;48.112;9.282;2022-12-10T11:56:00;93563.06;;;1.83;69.31
9855;BME280;4966;48.112;9.282;2022-12-10T11:58:43;93563.13;;;2.09;70.21
9855;BME280;4966;48.112;9.282;2022-12-10T12:06:38;93569.16;;;2.23;69.93
9855;BME280;4966;48.112;9.282;2022-12-10T12:14:23;93566.41;;;2.06;69.00
9855;BME280;4966;48.112;9.282;2022-12-10T12:17:35;93575.75;;;2.08;70.25
9855;BME280;4966;48.112;9.282;2022-12-10T12:20:18;93573.50;;;1.93;70.86
9855;BME280;4966;48.112;9.282;2022-12-10T12:22:54;93570.69;;;2.07;71.00
9855;BME280;4966;48.112;9.282;2022-12-10T12:25:28;93574.94;;;1.99;71.69
9855;BME280;4966;48.112;9.282;2022-12-10T12:28:03;93582.47;;;1.88;70.67
9855;BME280;4966;48.112;9.282;2022-12-10T12:30:32;93589.38;;;2.21;69.86
9855;BME280;4966;48.112;9.282;2022-12-10T12:33:05;93585.94;;;2.46;69.75
9855;BME280;4966;48.112;9.282;2022-12-10T12:35:48;93589.69;;;2.28;69.64
9855;BME280;4966;48.112;9.282;2022-12-10T12:38:30;93597.00;;;2.53;69.46
9855;BME280;4966;48.112;9.282;2022-12-10T12:41:03;93597.16;;;2.57;69.90
9855;BME280;4966;48.112;9.282;2022-12-10T12:43:47;93602.22;;;2.50;70.21
9855;BME280;4966;48.112;9.282;2022-12-10T12:46:20;93599.56;;;2.59;70.00
9855;BME280;4966;48.112;9.282;2022-12-10T12:48:58;93598.09;;;2.52;70.15
9855;BME280;4966;48.112;9.282;2022-12-10T12:51:40;93600.78;;;2.52;69.73
9855;BME280;4966;48.112;9.282;2022-12-10T12:54:10;93603.13;;;2.37;69.65
9855;BME280;4966;48.112;9.282;2022-12-10T12:59:34;93601.38;;;2.23;69.92
9855;BME280;4966;48.112;9.282;2022-12-10T13:04:50;93615.94;;;2.40;69.95
9855;BME280;4966;48.112;9.282;2022-12-10T13:09:47;93601.56;;;2.44;70.23
9855;BME280;4966;48.112;9.282;2022-12-10T13:12:28;93612.16;;;2.49;70.30
9855;BME280;4966;48.112;9.282;2022-12-10T13:15:02;93618.13;;;2.46;71.02
9855;BME280;4966;48.112;9.282;2022-12-10T13:17:36;93624.31;;;2.55;71.47
9855;BME280;4966;48.112;9.282;2022-12-10T13:25:38;93623.84;;;2.53;71.28
9855;BME280;4966;48.112;9.282;2022-12-10T13:36:10;93626.88;;;2.69;71.20
9855;BME280;4966;48.112;9.282;2022-12-10T13:38:41;93632.88;;;2.66;71.58
9855;BME280;4966;48.112;9.282;2022-12-10T13:41:19;93638.06;;;2.54;71.82
9855;BME280;4966;48.112;9.282;2022-12-10T13:44:35;93649.00;;;2.18;72.39
9855;BME280;4966;48.112;9.282;2022-12-10T13:47:32;93661.22;;;2.32;71.92
9855;BME280;4966;48.112;9.282;2022-12-10T13:49:59;93664.50;;;2.29;72.36
9855;BME280;4966;48.112;9.282;2022-12-10T13:55:32;93675.88;;;2.26;72.07
9855;BME280;4966;48.112;9.282;2022-12-10T13:58:13;93677.13;;;2.29;72.16
9855;BME280;4966;48.112;9.282;2022-12-10T14:01:02;93684.84;;;2.22;72.46
9855;BME280;4966;48.112;9.282;2022-12-10T14:03:41;93683.72;;;2.14;73.18
9855;BME280;4966;48.112;9.282;2022-12-10T14:09:03;93683.78;;;2.31;73.29
9855;BME280;4966;48.112;9.282;2022-12-10T14:11:36;93693.44;;;2.41;73.58
9855;BME280;4966;48.112;9.282;2022-12-10T14:14:04;93701.03;;;2.08;74.25
9855;BME280;4966;48.112;9.282;2022-12-10T14:16:32;93700.28;;;1.85;75.06
9855;BME280;4966;48.112;9.282;2022-12-10T14:19:08;93708.84;;;1.96;75.08
9855;BME280;4966;48.112;9.282;2022-12-10T14:21:38;93717.53;;;1.92;75.27
9855;BME280;4966;48.112;9.282;2022-12-10T14:24:05;93709.56;;;2.10;74.36
9855;BME280;4966;48.112;9.282;2022-12-10T14:26:32;93713.88;;;1.88;73.40
9855;BME280;4966;48.112;9.282;2022-12-10T14:28:59;93726.97;;;1.90;73.11
9855;BME280;4966;48.112;9.282;2022-12-10T14:31:38;93715.00;;;1.96;72.87
9855;BME280;4966;48.112;9.282;2022-12-10T14:34:07;93722.66;;;1.80;73.36
9855;BME280;4966;48.112;9.282;2022-12-10T14:36:37;93715.22;;;1.77;73.00
9855;BME280;4966;48.112;9.282;2022-12-10T14:39:13;93720.09;;;1.53;73.44
9855;BME280;4966;48.112;9.282;2022-12-10T14:41:39;93723.53;;;1.44;72.55
9855;BME280;4966;48.112;9.282;2022-12-10T14:44:05;93730.44;;;1.45;73.71
9855;BME280;4966;48.112;9.282;2022-12-10T14:46:31;93725.09;;;1.45;73.18
9855;BME280;4966;48.112;9.282;2022-12-10T14:48:56;93725.34;;;1.58;73.22
9855;BME280;4966;48.112;9.282;2022-12-10T14:51:24;93729.41;;;1.55;73.03
9855;BME280;4966;48.112;9.282;2022-12-10T14:53:51;93737.28;;;1.74;72.88
9855;BME280;4966;48.112;9.282;2022-12-10T14:56:25;93741.66;;;1.92;72.46
9855;BME280;4966;48.112;9.282;2022-12-10T15:03:58;93756.91;;;1.61;73.31
9855;BME280;4966;48.112;9.282;2022-12-10T15:06:25;93755.56;;;1.49;73.76
9855;BME280;4966;48.112;9.282;2022-12-10T15:08:54;93753.00;;;1.44;74.46
9855;BME280;4966;48.112;9.282;2022-12-10T15:11:21;93756.88;;;1.38;74.74
9855;BME280;4966;48.112;9.282;2022-12-10T15:13:49;93752.13;;;1.35;74.59
9855;BME280;4966;48.112;9.282;2022-12-10T15:16:27;93758.28;;;1.36;75.06